createdAt,value
2018-09-08T00:03:47.498Z,100921.44
2018-09-08T00:06:51.431Z,100915.08
2018-09-08T00:09:20.242Z,100920.28
2018-09-08T00:11:49.059Z,100922.94
2018-09-08T00:14:23.800Z,100925.74
2018-09-08T00:16:57.755Z,100917.75
2018-09-08T00:19:32.024Z,100921.55
2018-09-08T00:22:05.856Z,100930.94
2018-09-08T00:24:39.760Z,100927.84
2018-09-08T00:27:07.619Z,100924.82
2018-09-08T00:29:44.193Z,100926.65
2018-09-08T00:32:20.568Z,100933.20
2018-09-08T00:34:49.456Z,100930.82
2018-09-08T00:37:20.197Z,100933.42
2018-09-08T00:39:51.017Z,100928.31
2018-09-08T00:42:20.204Z,100928.59
2018-09-08T00:44:50.835Z,100932.27
2018-09-08T00:47:19.731Z,100933.79
2018-09-08T00:49:48.553Z,100938.82
2018-09-08T00:52:17.468Z,100940.27
2018-09-08T00:54:46.310Z,100933.52
2018-09-08T00:57:15.283Z,100941.90
2018-09-08T00:59:44.440Z,100936.44
2018-09-08T01:02:13.228Z,100942.64
2018-09-08T01:04:42.089Z,100946.58
2018-09-08T01:07:16.239Z,100942.67
2018-09-08T01:09:45.053Z,100948.53
2018-09-08T01:12:13.861Z,100949.59
2018-09-08T01:14:44.232Z,100954.78
2018-09-08T01:17:13.157Z,100949.85
2018-09-08T01:19:45.412Z,100956.80
2018-09-08T01:22:14.520Z,100957.64
2018-09-08T01:24:49.319Z,100956.11
2018-09-08T01:27:18.108Z,100961.36
2018-09-08T01:29:47.293Z,100961.64
2018-09-08T01:32:20.063Z,100965.89
2018-09-08T01:34:51.026Z,100969.75
2018-09-08T01:37:20.169Z,100966.20
2018-09-08T01:39:48.980Z,100969.05
2018-09-08T01:42:18.737Z,100965.39
2018-09-08T01:44:47.837Z,100964.80
2018-09-08T01:47:16.663Z,100964.92
2018-09-08T01:49:45.504Z,100969.95
2018-09-08T01:52:14.653Z,100973.19
2018-09-08T01:54:46.402Z,100975.58
2018-09-08T01:57:15.228Z,100976.23
2018-09-08T01:59:49.335Z,100974.59
2018-09-08T02:02:18.213Z,100983.08
2018-09-08T02:04:47.138Z,100983.05
2018-09-08T02:07:16.312Z,100982.19
2018-09-08T02:09:45.103Z,100984.91
2018-09-08T02:12:13.895Z,100991.92
2018-09-08T02:14:43.086Z,100988.31
2018-09-08T02:17:11.925Z,100990.27
2018-09-08T02:19:40.754Z,100986.25
2018-09-08T02:22:09.967Z,100981.28
2018-09-08T02:24:38.826Z,100985.23
2018-09-08T02:27:07.672Z,100988.08
2018-09-08T02:32:10.156Z,100985.87
2018-09-08T02:34:39.035Z,100984.15
2018-09-08T02:37:08.145Z,100984.84
2018-09-08T02:39:36.959Z,100985.59
2018-09-08T02:42:06.609Z,100980.98
2018-09-08T02:44:35.730Z,100984.84
2018-09-08T02:47:04.677Z,100984.24
2018-09-08T02:50:41.985Z,100988.69
2018-09-08T02:53:11.802Z,100991.78
2018-09-08T02:55:39.433Z,100989.71
2018-09-08T02:58:07.145Z,100995.31
2018-09-08T03:00:34.934Z,100987.70
2018-09-08T03:03:02.335Z,100987.23
2018-09-08T03:05:29.981Z,100993.33
2018-09-08T03:08:00.716Z,100988.66
2018-09-08T03:10:28.127Z,100989.98
2018-09-08T03:13:02.008Z,100991.77
2018-09-08T03:15:29.393Z,100993.90
2018-09-08T03:18:03.608Z,100990.45
2018-09-08T03:20:31.284Z,100994.78
2018-09-08T03:22:58.718Z,100999.03
2018-09-08T03:25:26.258Z,101003.22
2018-09-08T03:27:53.988Z,101007.27
2018-09-08T03:30:29.428Z,100999.89
2018-09-08T03:32:56.879Z,101002.08
2018-09-08T03:35:24.288Z,101004.28
2018-09-08T03:37:52.684Z,101008.07
2018-09-08T03:40:20.358Z,101011.19
2018-09-08T03:42:47.823Z,101008.41
2018-09-08T03:45:15.270Z,101003.03
2018-09-08T03:47:42.989Z,101007.20
2018-09-08T03:50:10.404Z,101008.82
2018-09-08T03:52:37.897Z,101006.53
2018-09-08T03:55:05.589Z,101011.56
2018-09-08T03:57:32.985Z,101010.13
2018-09-08T04:02:40.242Z,101010.52
2018-09-08T04:05:09.048Z,101010.98
2018-09-08T04:07:37.860Z,101006.52
2018-09-08T04:10:09.096Z,101009.43
2018-09-08T04:12:37.923Z,101016.80
2018-09-08T04:15:06.749Z,101005.77
2018-09-08T04:20:15.418Z,101004.89
2018-09-08T04:22:44.324Z,101010.58
2018-09-08T04:25:13.156Z,101007.34
2018-09-08T04:27:41.972Z,101010.50
2018-09-08T04:30:11.053Z,101015.83
2018-09-08T04:32:39.849Z,101029.65
2018-09-08T04:35:08.691Z,101029.31
2018-09-08T04:37:37.804Z,101035.92
2018-09-08T04:40:06.785Z,101029.17
2018-09-08T04:42:35.638Z,101027.95
2018-09-08T04:45:04.923Z,101042.56
2018-09-08T04:47:33.777Z,101040.75
2018-09-08T04:50:04.423Z,101043.09
2018-09-08T04:52:33.514Z,101039.66
2018-09-08T04:55:02.346Z,101042.11
2018-09-08T04:57:31.218Z,101045.78
2018-09-08T05:00:00.343Z,101039.03
2018-09-08T05:05:08.630Z,101048.98
2018-09-08T05:07:37.483Z,101047.49
2018-09-08T05:10:06.862Z,101053.24
2018-09-08T05:12:42.056Z,101050.97
2018-09-08T05:15:10.965Z,101054.33
2018-09-08T05:17:43.050Z,101052.23
2018-09-08T05:20:12.213Z,101059.26
2018-09-08T05:22:42.262Z,101061.99
2018-09-08T05:25:11.081Z,101065.38
2018-09-08T05:27:40.175Z,101068.41
2018-09-08T05:30:09.041Z,101070.62
2018-09-08T05:32:37.908Z,101069.95
2018-09-08T05:35:07.456Z,101067.48
2018-09-08T05:37:42.304Z,101062.84
2018-09-08T05:40:11.196Z,101061.25
2018-09-08T05:42:46.470Z,101067.03
2018-09-08T05:45:15.593Z,101067.22
2018-09-08T05:47:44.403Z,101072.22
2018-09-08T05:50:13.289Z,101079.61
2018-09-08T05:52:42.448Z,101076.20
2018-09-08T05:55:11.289Z,101082.39
2018-09-08T05:57:40.120Z,101077.37
2018-09-08T06:00:09.329Z,101084.10
2018-09-08T06:02:38.160Z,101084.78
2018-09-08T06:05:06.993Z,101086.69
2018-09-08T06:07:36.607Z,101089.31
2018-09-08T06:10:07.407Z,101089.23
2018-09-08T06:12:36.248Z,101095.21
2018-09-08T06:15:09.120Z,101095.86
2018-09-08T06:17:38.029Z,101099.35
2018-09-08T06:20:06.901Z,101099.26
2018-09-08T06:22:37.920Z,101096.94
2018-09-08T06:25:06.861Z,101097.20
2018-09-08T06:27:35.740Z,101104.79
2018-09-08T06:30:05.795Z,101102.00
2018-09-08T06:32:34.689Z,101105.98
2018-09-08T06:35:04.858Z,101104.37
2018-09-08T06:37:37.941Z,101098.23
2018-09-08T06:40:07.087Z,101100.63
2018-09-08T06:42:37.694Z,101098.78
2018-09-08T06:45:07.029Z,101106.05
2018-09-08T06:47:37.653Z,101100.35
2018-09-08T06:50:06.549Z,101101.28
2018-09-08T06:52:40.655Z,101101.56
2018-09-08T06:55:10.385Z,101102.09
2018-09-08T06:57:39.357Z,101105.25
2018-09-08T07:02:49.364Z,101112.00
2018-09-08T07:05:18.535Z,101114.69
2018-09-08T07:07:47.609Z,101110.73
2018-09-08T07:10:17.308Z,101116.50
2018-09-08T07:12:50.993Z,101111.66
2018-09-08T07:15:19.973Z,101117.22
2018-09-08T07:17:54.261Z,101113.21
2018-09-08T07:20:23.285Z,101118.11
2018-09-08T07:22:58.554Z,101126.98
2018-09-08T07:25:27.457Z,101127.43
2018-09-08T07:28:07.320Z,101132.98
2018-09-08T07:33:16.056Z,101133.36
2018-09-08T07:35:45.297Z,101130.16
2018-09-08T07:38:14.394Z,101134.87
2018-09-08T07:40:43.315Z,101134.41
2018-09-08T07:43:12.463Z,101142.92
2018-09-08T07:45:41.349Z,101145.53
2018-09-08T07:48:10.734Z,101142.19
2018-09-08T07:50:40.879Z,101148.16
2018-09-08T07:53:09.735Z,101146.59
2018-09-08T07:55:38.676Z,101148.81
2018-09-08T07:58:07.881Z,101145.91
2018-09-08T08:00:39.836Z,101144.36
2018-09-08T08:03:08.857Z,101142.45
2018-09-08T08:05:42.762Z,101146.25
2018-09-08T08:08:11.804Z,101138.30
2018-09-08T08:10:40.985Z,101135.19
2018-09-08T08:13:11.152Z,101134.06
2018-09-08T08:15:40.136Z,101140.28
2018-09-08T08:18:14.820Z,101133.95
2018-09-08T08:20:43.799Z,101135.78
2018-09-08T08:23:12.693Z,101132.75
2018-09-08T08:25:42.003Z,101134.69
2018-09-08T08:28:11.157Z,101141.01
2018-09-08T08:30:40.115Z,101140.08
2018-09-08T08:33:09.399Z,101140.44
2018-09-08T08:35:44.732Z,101139.63
2018-09-08T08:38:13.601Z,101140.12
2018-09-08T08:40:42.921Z,101134.44
2018-09-08T08:43:11.922Z,101138.52
2018-09-08T08:45:41.021Z,101127.06
2018-09-08T08:48:13.240Z,101131.09
2018-09-08T08:50:52.941Z,101124.02
2018-09-08T08:53:34.110Z,101129.22
2018-09-08T08:56:05.342Z,101130.20
2018-09-08T08:58:34.237Z,101126.21
2018-09-08T09:01:03.433Z,101124.95
2018-09-08T09:03:32.446Z,101130.55
2018-09-08T09:06:03.791Z,101128.39
2018-09-08T09:08:33.570Z,101124.70
2018-09-08T09:11:01.988Z,101122.42
2018-09-08T09:13:31.172Z,101122.93
2018-09-08T09:16:00.378Z,101125.30
2018-09-08T09:18:40.605Z,101120.97
2018-09-08T09:21:19.954Z,101117.57
2018-09-08T09:24:58.734Z,101118.13
2018-09-08T09:27:28.264Z,101112.92
2018-09-08T09:29:57.429Z,101112.67
2018-09-08T09:32:26.357Z,101106.37
2018-09-08T09:34:55.653Z,101104.03
2018-09-08T09:37:24.626Z,101101.17
2018-09-08T09:40:04.047Z,101103.22
2018-09-08T09:42:34.242Z,101098.30
2018-09-08T09:45:03.203Z,101101.50
2018-09-08T09:47:32.175Z,101097.14
2018-09-08T09:50:06.580Z,101083.85
2018-09-08T09:52:35.431Z,101088.10
2018-09-08T09:55:04.357Z,101085.47
2018-09-08T09:57:33.560Z,101088.27
2018-09-08T10:00:03.243Z,101085.42
2018-09-08T10:02:39.012Z,101087.48
2018-09-08T10:05:11.836Z,101089.85
2018-09-08T10:07:40.710Z,101085.71
2018-09-08T10:10:17.807Z,101081.55
2018-09-08T10:12:51.430Z,101078.39
2018-09-08T10:15:20.497Z,101078.25
2018-09-08T10:17:54.052Z,101070.66
2018-09-08T10:20:23.810Z,101081.67
2018-09-08T10:22:59.774Z,101075.73
2018-09-08T10:25:28.668Z,101077.06
2018-09-08T10:27:57.603Z,101071.27
2018-09-08T10:30:26.515Z,101064.80
2018-09-08T10:32:55.373Z,101058.31
2018-09-08T10:35:24.570Z,101062.67
2018-09-08T10:37:53.548Z,101066.45
2018-09-08T10:40:22.486Z,101059.74
2018-09-08T10:45:29.917Z,101067.78
2018-09-08T10:47:59.192Z,101071.63
2018-09-08T10:50:35.200Z,101067.69
2018-09-08T10:53:04.143Z,101065.98
2018-09-08T10:55:37.939Z,101060.37
2018-09-08T10:58:06.868Z,101058.90
2018-09-08T11:00:35.962Z,101062.80
2018-09-08T11:03:08.664Z,101055.14
2018-09-08T11:05:38.054Z,101055.50
2018-09-08T11:08:06.923Z,101050.05
2018-09-08T11:10:40.919Z,101043.30
2018-09-08T11:13:10.707Z,101042.14
2018-09-08T11:15:41.576Z,101043.63
2018-09-08T11:18:10.385Z,101046.59
2018-09-08T11:20:39.322Z,101044.63
2018-09-08T11:23:08.945Z,101042.25
2018-09-08T11:25:54.840Z,101032.71
2018-09-08T11:31:01.736Z,101031.97
2018-09-08T11:33:30.708Z,101027.23
2018-09-08T11:36:03.171Z,101023.53
2018-09-08T11:38:32.272Z,101025.74
2018-09-08T11:41:01.745Z,101029.48
2018-09-08T11:43:31.244Z,101027.50
2018-09-08T11:46:05.029Z,101024.94
2018-09-08T11:48:34.174Z,101027.02
2018-09-08T11:51:03.338Z,101020.94
2018-09-08T11:53:32.738Z,101019.13
2018-09-08T11:56:02.729Z,101013.37
2018-09-08T11:58:31.817Z,101015.84
2018-09-08T12:01:00.747Z,101016.98
2018-09-08T12:03:33.143Z,101009.31
2018-09-08T12:06:03.188Z,101012.25
2018-09-08T12:08:32.373Z,101016.41
2018-09-08T12:11:01.543Z,101006.77
2018-09-08T12:13:30.793Z,101007.47
2018-09-08T12:16:04.458Z,101002.22
2018-09-08T12:18:33.442Z,101006.29
2018-09-08T12:21:02.711Z,101004.23
2018-09-08T12:23:33.808Z,101000.64
2018-09-08T12:26:03.420Z,100998.86
2018-09-08T12:28:33.020Z,100997.98
2018-09-08T12:31:02.106Z,100999.64
2018-09-08T12:33:31.365Z,100998.68
2018-09-08T12:36:05.169Z,100996.09
2018-09-08T12:41:16.500Z,101001.52
2018-09-08T12:43:45.532Z,100992.46
2018-09-08T12:46:14.477Z,100988.09
2018-09-08T12:48:44.275Z,100985.69
2018-09-08T12:51:13.299Z,100986.86
2018-09-08T12:53:46.126Z,100975.52
2018-09-08T12:56:21.621Z,100972.13
2018-09-08T12:58:50.928Z,100975.28
2018-09-08T13:01:19.998Z,100964.64
2018-09-08T13:03:49.034Z,100972.59
2018-09-08T13:06:18.608Z,100959.75
2018-09-08T13:08:48.054Z,100954.59
2018-09-08T13:11:16.913Z,100956.84
2018-09-08T13:13:45.811Z,100953.70
2018-09-08T13:16:14.959Z,100955.30
2018-09-08T13:18:46.109Z,100960.86
2018-09-08T13:21:14.991Z,100970.02
2018-09-08T13:23:44.183Z,100954.45
2018-09-08T13:26:32.439Z,100953.48
2018-09-08T13:29:01.843Z,100950.79
2018-09-08T13:31:36.771Z,100943.02
2018-09-08T13:34:07.201Z,100947.89
2018-09-08T13:36:36.085Z,100948.05
2018-09-08T13:39:06.235Z,100937.37
2018-09-08T13:41:35.368Z,100952.51
2018-09-08T13:44:05.374Z,100945.66
2018-09-08T13:46:34.335Z,100940.22
2018-09-08T13:49:14.324Z,100939.62
2018-09-08T13:51:43.782Z,100938.63
2018-09-08T13:54:13.027Z,100937.80
2018-09-08T13:56:46.054Z,100932.91
2018-09-08T13:59:15.054Z,100920.20
2018-09-08T14:01:43.933Z,100914.37
2018-09-08T14:04:13.286Z,100910.25
2018-09-08T14:06:42.144Z,100912.50
2018-09-08T14:09:11.061Z,100915.14
2018-09-08T14:11:41.090Z,100917.87
2018-09-08T14:14:09.932Z,100905.54
2018-09-08T14:16:38.969Z,100909.81
2018-09-08T14:19:08.333Z,100922.00
2018-09-08T14:21:37.212Z,100916.47
2018-09-08T14:24:06.571Z,100913.30
2018-09-08T14:26:36.774Z,100912.56
2018-09-08T14:29:05.641Z,100904.33
2018-09-08T14:31:34.689Z,100907.27
2018-09-08T14:34:14.968Z,100915.91
2018-09-08T14:36:43.822Z,100906.70
2018-09-08T14:39:13.080Z,100902.39
2018-09-08T14:41:47.453Z,100911.05
2018-09-08T14:44:16.682Z,100905.70
2018-09-08T14:46:47.072Z,100897.13
2018-09-08T14:49:15.964Z,100897.54
2018-09-08T14:51:48.076Z,100895.00
2018-09-08T14:54:17.744Z,100901.41
2018-09-08T14:56:47.049Z,100898.61
2018-09-08T14:59:15.871Z,100901.67
2018-09-08T15:01:46.065Z,100900.45
2018-09-08T15:04:15.142Z,100902.67
2018-09-08T15:06:44.165Z,100892.10
2018-09-08T15:09:14.313Z,100895.88
2018-09-08T15:11:44.068Z,100900.80
2018-09-08T15:14:14.001Z,100898.90
2018-09-08T15:16:42.899Z,100896.08
2018-09-08T15:19:12.655Z,100906.05
2018-09-08T15:21:41.557Z,100909.50
2018-09-08T15:24:16.918Z,100905.45
2018-09-08T15:26:45.990Z,100903.42
2018-09-08T15:29:14.852Z,100920.17
2018-09-08T15:31:44.877Z,100908.05
2018-09-08T15:34:13.824Z,100908.91
2018-09-08T15:36:42.869Z,100909.99
2018-09-08T15:39:16.250Z,100904.03
2018-09-08T15:41:45.329Z,100901.48
2018-09-08T15:44:18.823Z,100903.83
2018-09-08T15:46:48.046Z,100904.28
2018-09-08T15:49:16.917Z,100907.25
2018-09-08T15:51:46.191Z,100905.70
2018-09-08T15:54:15.884Z,100913.50
2018-09-08T15:56:44.915Z,100907.09
2018-09-08T15:59:13.950Z,100913.42
2018-09-08T16:01:43.310Z,100918.48
2018-09-08T16:04:13.129Z,100917.72
2018-09-08T16:06:47.475Z,100904.09
2018-09-08T16:09:21.588Z,100913.95
2018-09-08T16:11:50.629Z,100905.34
2018-09-08T16:14:20.368Z,100900.78
2018-09-08T16:19:29.271Z,100904.03
2018-09-08T16:21:58.132Z,100901.69
2018-09-08T16:24:26.996Z,100907.13
2018-09-08T16:26:59.287Z,100906.88
2018-09-08T16:32:05.554Z,100896.12
2018-09-08T16:34:36.644Z,100894.15
2018-09-08T16:37:09.566Z,100892.07
2018-09-08T16:39:38.481Z,100880.07
2018-09-08T16:42:07.849Z,100886.33
2018-09-08T16:44:40.564Z,100887.98
2018-09-08T16:47:09.488Z,100886.22
2018-09-08T16:49:38.721Z,100885.62
2018-09-08T16:52:07.778Z,100890.16
2018-09-08T16:54:36.624Z,100888.24
2018-09-08T16:57:10.853Z,100884.92
2018-09-08T16:59:39.944Z,100882.80
2018-09-08T17:02:13.137Z,100881.83
2018-09-08T17:04:42.074Z,100884.40
2018-09-08T17:07:10.987Z,100895.69
2018-09-08T17:09:40.243Z,100888.80
2018-09-08T17:12:09.396Z,100894.38
2018-09-08T17:14:38.502Z,100888.46
2018-09-08T17:17:07.774Z,100884.66
2018-09-08T17:19:37.696Z,100878.98
2018-09-08T17:22:06.787Z,100882.48
2018-09-08T17:24:35.982Z,100888.54
2018-09-08T17:27:04.944Z,100894.16
2018-09-08T17:29:33.946Z,100888.06
2018-09-08T17:32:04.229Z,100884.16
2018-09-08T17:34:33.107Z,100892.99
2018-09-08T17:37:02.198Z,100897.50
2018-09-08T17:39:32.575Z,100888.21
2018-09-08T17:42:01.524Z,100901.20
2018-09-08T17:44:30.446Z,100902.02
2018-09-08T17:47:14.614Z,100897.07
2018-09-08T17:49:46.714Z,100895.58
2018-09-08T17:52:16.223Z,100903.48
2018-09-08T17:54:45.156Z,100897.69
2018-09-08T17:57:20.919Z,100900.89
2018-09-08T18:02:36.077Z,100901.47
2018-09-08T18:05:06.409Z,100902.31
2018-09-08T18:07:35.491Z,100906.83
2018-09-08T18:10:05.479Z,100914.34
2018-09-08T18:12:35.356Z,100914.84
2018-09-08T18:15:04.335Z,100914.71
2018-09-08T18:17:39.068Z,100922.42
2018-09-08T18:20:08.287Z,100923.12
2018-09-08T18:22:37.716Z,100928.92
2018-09-08T18:25:06.826Z,100927.80
2018-09-08T18:27:36.975Z,100928.50
2018-09-08T18:30:06.153Z,100928.77
2018-09-08T18:35:10.741Z,100925.28
2018-09-08T18:37:40.255Z,100923.82
2018-09-08T18:40:09.216Z,100921.37
2018-09-08T18:42:39.032Z,100921.52
2018-09-08T18:45:08.090Z,100923.60
2018-09-08T18:47:37.617Z,100920.80
2018-09-08T18:50:13.298Z,100923.82
2018-09-08T18:52:42.188Z,100925.66
2018-09-08T18:55:11.121Z,100926.88
2018-09-08T19:00:19.857Z,100929.02
2018-09-08T19:02:48.801Z,100938.87
2018-09-08T19:05:17.762Z,100930.96
2018-09-08T19:08:09.287Z,100929.42
2018-09-08T19:10:38.608Z,100927.58
2018-09-08T19:13:11.823Z,100926.40
2018-09-08T19:15:40.910Z,100935.19
2018-09-08T19:18:10.231Z,100930.62
2018-09-08T19:20:40.568Z,100938.17
2018-09-08T19:23:09.704Z,100938.73
2018-09-08T19:25:39.052Z,100937.17
2018-09-08T19:28:09.596Z,100932.09
2018-09-08T19:30:38.553Z,100932.47
2018-09-08T19:33:11.420Z,100933.91
2018-09-08T19:35:40.696Z,100931.11
2018-09-08T19:38:09.695Z,100930.75
2018-09-08T19:40:44.315Z,100925.33
2018-09-08T19:43:18.465Z,100923.30
2018-09-08T19:45:47.709Z,100928.66
2018-09-08T19:48:17.932Z,100927.27
2018-09-08T19:50:47.804Z,100922.34
2018-09-08T19:53:22.076Z,100929.83
2018-09-08T20:01:58.559Z,100917.94
2018-09-08T20:04:30.316Z,100921.41
2018-09-08T20:06:59.660Z,100923.03
2018-09-08T20:29:37.136Z,100946.17
2018-09-08T20:32:15.100Z,100940.12
2018-09-08T20:34:47.334Z,100941.45
2018-09-08T20:37:19.701Z,100939.53
2018-09-08T20:39:50.622Z,100937.91
2018-09-08T20:42:21.143Z,100941.84
2018-09-08T20:47:55.558Z,100938.81
2018-09-08T20:50:42.363Z,100944.23
2018-09-08T20:53:40.214Z,100944.80
2018-09-08T20:56:39.895Z,100942.75
2018-09-08T20:59:25.792Z,100940.12
2018-09-08T21:13:45.684Z,100948.67
2018-09-08T21:45:24.974Z,100945.80
2018-09-08T21:48:07.632Z,100946.04
2018-09-08T21:50:43.270Z,100953.48
2018-09-08T21:53:13.044Z,100957.39
2018-09-08T22:01:40.800Z,100956.75
2018-09-08T22:07:05.636Z,100963.72
2018-09-08T22:09:41.478Z,100962.39
2018-09-08T22:12:16.617Z,100958.52
2018-09-08T22:14:51.130Z,100959.52
2018-09-08T22:17:23.035Z,100958.57
2018-09-08T22:19:52.247Z,100962.09
2018-09-08T22:22:23.697Z,100967.54
2018-09-08T22:24:52.807Z,100969.63
2018-09-08T22:27:23.737Z,100973.17
2018-09-08T22:29:57.440Z,100969.05
2018-09-08T22:32:31.361Z,100976.69
2018-09-08T22:35:00.678Z,100980.35
2018-09-08T22:37:33.161Z,100983.03
2018-09-08T22:40:13.479Z,100986.22
2018-09-08T22:42:44.180Z,100980.88
2018-09-08T22:47:55.107Z,100972.30
2018-09-08T22:50:25.875Z,100976.34
2018-09-08T22:52:56.187Z,100980.72
2018-09-08T22:55:25.490Z,100974.46
2018-09-08T22:58:00.659Z,100968.75
2018-09-08T23:00:29.855Z,100965.23
2018-09-08T23:02:59.153Z,100970.67
2018-09-08T23:05:28.675Z,100973.49
2018-09-08T23:07:57.725Z,100975.45
2018-09-08T23:10:26.816Z,100969.87
2018-09-08T23:12:56.361Z,100972.53
2018-09-08T23:15:25.878Z,100975.94
2018-09-08T23:17:54.790Z,100977.39
2018-09-08T23:20:24.100Z,100976.64
2018-09-08T23:22:52.978Z,100976.28
2018-09-08T23:25:21.811Z,100977.97
2018-09-08T23:27:52.121Z,100982.94
2018-09-08T23:30:21.027Z,100983.66
2018-09-08T23:32:57.720Z,100985.49
2018-09-08T23:35:27.023Z,100989.08
2018-09-08T23:37:56.029Z,100986.51
2018-09-08T23:40:24.943Z,100991.31
2018-09-08T23:42:54.320Z,100997.02
2018-09-08T23:45:23.231Z,100998.23
2018-09-08T23:47:52.095Z,100994.31
2018-09-08T23:50:21.525Z,100993.17
2018-09-08T23:52:50.406Z,100996.04
2018-09-08T23:55:19.329Z,100995.34
2018-09-08T23:57:48.781Z,100992.47
